Time,TemperatureF,DewpointF,PressureIn,WindDirection,WindDirectionDegrees,WindSpeedMPH,WindSpeedGustMPH,Humidity,HourlyPrecipIn,Conditions,Clouds,dailyrainin,SoftwareType,DateUTC
2013-06-04 00:01:00,57.7,48.4,29.54,North,355,0.2,2.3,71,0.00,RA,SCT,0.00,WeatherDisplay:10.37,2013-06-04 04:01:00,
2013-06-04 00:06:00,57.5,47.8,29.54,NW,324,1.1,3.5,70,0.00,RA,SCT,0.00,WeatherDisplay:10.37,2013-06-04 04:06:00,
2013-06-04 00:11:00,57.3,47.2,29.55,North,360,1.3,3.5,69,0.00,CLR,SCT,0.00,WeatherDisplay:10.37,2013-06-04 04:11:00,
2013-06-04 00:16:00,57.1,47.4,29.54,North,350,0.4,1.1,70,0.00,CLR,SCT,0.00,WeatherDisplay:10.37,2013-06-04 04:16:00,
2013-06-04 00:21:00,56.9,47.2,29.55,NNW,329,1.3,3.0,70,0.00,CLR,SCT,0.00,WeatherDisplay:10.37,2013-06-04 04:21:00,
2013-06-04 00:26:00,56.6,47.3,29.55,NNW,337,0.5,1.1,71,0.00,CLR,SCT,0.00,WeatherDisplay:10.37,2013-06-04 04:26:00,
2013-06-04 00:31:00,56.4,48.2,29.55,NNW,337,0.0,1.1,74,0.00,CLR,SCT,0.00,WeatherDisplay:10.37,2013-06-04 04:31:00,
2013-06-04 00:36:00,56.0,46.7,29.55,NNW,337,0.1,1.1,71,0.00,CLR,SCT,0.00,WeatherDisplay:10.37,2013-06-04 04:36:00,
2013-06-04 00:42:00,55.7,46.8,29.55,NNW,338,0.5,1.1,72,0.00,CLR,SCT,0.00,WeatherDisplay:10.37,2013-06-04 04:42:00,
2013-06-04 00:47:00,55.3,46.4,29.55,NNW,348,1.2,2.3,72,0.00,CLR,SCT,0.00,WeatherDisplay:10.37,2013-06-04 04:47:00,
2013-06-04 00:52:00,55.1,46.2,29.56,NNW,336,1.4,3.5,72,0.00,CLR,SCT,0.00,WeatherDisplay:10.37,2013-06-04 04:52:00,
2013-06-04 00:57:00,54.9,44.9,29.56,NW,325,0.6,1.1,69,0.00,CLR,SCT,0.00,WeatherDisplay:10.37,2013-06-04 04:57:00,
2013-06-04 01:02:00,54.8,45.2,29.56,North,355,0.2,1.1,70,0.00,CLR,SCT,0.00,WeatherDisplay:10.37,2013-06-04 05:02:00,
2013-06-04 01:07:00,54.6,44.6,29.56,North,5,2.0,4.6,69,0.00,CLR,SCT,0.00,WeatherDisplay:10.37,2013-06-04 05:07:00,
2013-06-04 01:12:00,54.5,44.5,29.56,NW,317,0.8,3.5,69,0.00,CLR,SCT,0.00,WeatherDisplay:10.37,2013-06-04 05:12:00,
2013-06-04 01:17:00,54.3,44.7,29.55,NNW,346,1.1,2.3,70,0.00,CLR,SCT,0.00,WeatherDisplay:10.37,2013-06-04 05:17:00,
2013-06-04 01:22:00,54.2,44.2,29.56,NNW,329,0.7,2.3,69,0.00,CLR,SCT,0.00,WeatherDisplay:10.37,2013-06-04 05:22:00,
2013-06-04 01:27:00,54.1,44.5,29.56,NNW,335,2.0,4.6,70,0.00,CLR,SCT,0.00,WeatherDisplay:10.37,2013-06-04 05:27:00,
2013-06-04 01:32:00,53.9,44.0,29.56,NNW,328,2.3,4.6,69,0.00,CLR,SCT,0.00,WeatherDisplay:10.37,2013-06-04 05:32:00,
2013-06-04 01:37:00,53.9,44.3,29.56,North,350,0.6,2.3,70,0.00,CLR,SCT,0.00,WeatherDisplay:10.37,2013-06-04 05:37:00,
2013-06-04 01:42:00,53.7,43.8,29.56,North,351,2.0,4.6,69,0.00,CLR,SCT,0.00,WeatherDisplay:10.37,2013-06-04 05:42:00,
2013-06-04 01:47:00,53.6,43.3,29.56,NNE,21,1.4,3.5,68,0.00,CLR,SCT,0.00,WeatherDisplay:10.37,2013-06-04 05:47:00,
2013-06-04 01:52:00,53.6,42.5,29.56,NNW,342,4.4,6.9,66,0.00,CLR,SCT,0.00,WeatherDisplay:10.37,2013-06-04 05:52:00,
2013-06-04 01:57:00,53.6,42.5,29.56,NW,308,2.9,4.6,66,0.00,CLR,SCT,0.00,WeatherDisplay:10.37,2013-06-04 05:57:00,
2013-06-04 02:02:00,53.7,42.6,29.56,WNW,294,3.9,7.0,66,0.00,CLR,SCT,0.00,WeatherDisplay:10.37,2013-06-04 06:02:00,
2013-06-04 02:07:00,53.7,41.8,29.57,WNW,303,3.5,5.8,64,0.00,CLR,SCT,0.00,WeatherDisplay:10.37,2013-06-04 06:07:00,
2013-06-04 02:12:00,53.6,41.3,29.57,WNW,292,2.4,5.8,63,0.00,CLR,SCT,0.00,WeatherDisplay:10.37,2013-06-04 06:12:00,
2013-06-04 02:17:00,53.6,41.7,29.57,North,9,2.8,5.0,64,0.00,CLR,SCT,0.00,WeatherDisplay:10.37,2013-06-04 06:17:00,
2013-06-04 02:22:00,53.5,41.2,29.57,NNW,337,2.3,4.6,63,0.00,CLR,SCT,0.00,WeatherDisplay:10.37,2013-06-04 06:22:00,
2013-06-04 02:27:00,53.5,41.2,29.57,NW,315,2.1,4.6,63,0.00,CLR,SCT,0.00,WeatherDisplay:10.37,2013-06-04 06:27:00,
2013-06-04 02:32:00,53.5,41.2,29.57,NNW,346,3.2,4.6,63,0.00,CLR,SCT,0.00,WeatherDisplay:10.37,2013-06-04 06:32:00,
2013-06-04 02:37:00,53.5,42.0,29.57,WNW,286,2.9,5.8,65,0.00,CLR,SCT,0.00,WeatherDisplay:10.37,2013-06-04 06:37:00,
2013-06-04 02:42:00,53.4,41.9,29.57,NNW,346,1.6,3.5,65,0.00,CLR,SCT,0.00,WeatherDisplay:10.37,2013-06-04 06:42:00,
2013-06-04 02:47:00,53.2,41.7,29.57,NNW,343,1.8,4.6,65,0.00,CLR,SCT,0.00,WeatherDisplay:10.37,2013-06-04 06:47:00,
2013-06-04 02:52:00,53.2,41.3,29.57,North,360,2.3,4.6,64,0.00,CLR,SCT,0.00,WeatherDisplay:10.37,2013-06-04 06:52:00,
2013-06-04 02:57:00,53.2,40.9,29.57,North,360,2.6,4.6,63,0.00,CLR,SCT,0.00,WeatherDisplay:10.37,2013-06-04 06:57:00,
2013-06-04 03:02:00,53.1,41.2,29.57,NNW,332,1.5,3.5,64,0.00,CLR,SCT,0.00,WeatherDisplay:10.37,2013-06-04 07:02:00,
2013-06-04 03:07:00,53.0,41.9,29.57,WNW,290,2.9,3.5,66,0.00,CLR,SCT,0.00,WeatherDisplay:10.37,2013-06-04 07:07:00,
2013-06-04 03:12:00,52.9,41.8,29.57,NNW,338,1.4,5.0,66,0.00,CLR,SCT,0.00,WeatherDisplay:10.37,2013-06-04 07:12:00,
2013-06-04 03:17:00,52.7,40.9,29.57,WNW,294,4.6,11.5,64,0.00,CLR,SCT,0.00,WeatherDisplay:10.37,2013-06-04 07:17:00,
2013-06-04 03:22:00,52.7,41.7,29.57,NNW,341,1.5,4.6,66,0.00,CLR,SCT,0.00,WeatherDisplay:10.37,2013-06-04 07:22:00,
2013-06-04 03:27:00,52.5,41.5,29.56,North,5,2.2,4.6,66,0.00,CLR,SCT,0.00,WeatherDisplay:10.37,2013-06-04 07:27:00,
2013-06-04 03:32:00,52.3,42.0,29.56,North,360,2.8,4.6,68,0.00,CLR,SCT,0.00,WeatherDisplay:10.37,2013-06-04 07:32:00,
2013-06-04 03:37:00,52.2,42.0,29.56,NW,317,3.5,5.8,68,0.00,CLR,SCT,0.00,WeatherDisplay:10.37,2013-06-04 07:37:00,
2013-06-04 03:42:00,52.1,42.2,29.56,NW,309,2.2,4.6,69,0.00,CLR,SCT,0.00,WeatherDisplay:10.37,2013-06-04 07:42:00,
2013-06-04 03:47:00,51.9,41.7,29.56,NW,317,2.8,3.5,68,0.00,CLR,SCT,0.00,WeatherDisplay:10.37,2013-06-04 07:47:00,
2013-06-04 03:52:00,51.7,42.2,29.57,NW,323,2.2,3.5,70,0.00,CLR,SCT,0.00,WeatherDisplay:10.37,2013-06-04 07:52:00,
2013-06-04 03:57:00,51.7,41.9,29.57,NNW,339,2.3,4.6,69,0.00,CLR,SCT,0.00,WeatherDisplay:10.37,2013-06-04 07:57:00,
2013-06-04 04:02:00,51.6,43.2,29.57,NW,312,2.1,4.0,73,0.00,CLR,SCT,0.00,WeatherDisplay:10.37,2013-06-04 08:02:00,
2013-06-04 04:07:00,51.5,41.7,29.57,NW,325,2.8,4.0,69,0.00,CLR,SCT,0.00,WeatherDisplay:10.37,2013-06-04 08:07:00,
2013-06-04 04:12:00,51.5,42.4,29.57,NW,314,4.5,6.9,71,0.00,CLR,SCT,0.00,WeatherDisplay:10.37,2013-06-04 08:12:00,
2013-06-04 04:17:00,51.5,42.0,29.58,NW,323,2.5,3.5,70,0.00,CLR,SCT,0.00,WeatherDisplay:10.37,2013-06-04 08:17:00,
2013-06-04 04:22:00,51.3,42.6,29.58,NW,320,3.4,5.8,72,0.00,CLR,SCT,0.00,WeatherDisplay:10.37,2013-06-04 08:22:00,
2013-06-04 04:27:00,51.2,42.1,29.58,WNW,294,2.0,5.8,71,0.00,CLR,SCT,0.00,WeatherDisplay:10.37,2013-06-04 08:27:00,
2013-06-04 04:32:00,51.2,42.1,29.58,NW,309,2.2,4.0,71,0.00,CLR,SCT,0.00,WeatherDisplay:10.37,2013-06-04 08:32:00,
2013-06-04 04:37:00,51.1,42.4,29.58,SE,140,1.8,4.6,72,0.00,CLR,SCT,0.00,WeatherDisplay:10.37,2013-06-04 08:37:00,
2013-06-04 04:42:00,51.1,42.0,29.58,NW,319,1.1,3.5,71,0.00,CLR,SCT,0.00,WeatherDisplay:10.37,2013-06-04 08:42:00,
2013-06-04 04:47:00,51.1,42.4,29.58,NW,311,1.5,3.5,72,0.00,CLR,SCT,0.00,WeatherDisplay:10.37,2013-06-04 08:47:00,
2013-06-04 04:52:00,51.0,43.0,29.58,NNW,327,1.0,3.5,74,0.00,CLR,SCT,0.00,WeatherDisplay:10.37,2013-06-04 08:52:00,
2013-06-04 04:57:00,50.8,42.8,29.59,NW,321,1.9,3.5,74,0.00,CLR,SCT,0.00,WeatherDisplay:10.37,2013-06-04 08:57:00,
2013-06-04 05:02:00,50.7,42.7,29.58,NW,325,0.9,2.3,74,0.00,CLR,SCT,0.00,WeatherDisplay:10.37,2013-06-04 09:02:00,
2013-06-04 05:07:00,50.5,42.9,29.58,WNW,291,0.7,2.3,75,0.00,CLR,SCT,0.00,WeatherDisplay:10.37,2013-06-04 09:07:00,
2013-06-04 05:12:00,50.4,42.4,29.58,WNW,303,0.8,2.3,74,0.00,CLR,SCT,0.00,WeatherDisplay:10.37,2013-06-04 09:12:00,
2013-06-04 05:17:00,50.3,42.7,29.59,WNW,303,0.5,2.0,75,0.00,CLR,SCT,0.00,WeatherDisplay:10.37,2013-06-04 09:17:00,
2013-06-04 05:22:00,50.1,42.8,29.59,NW,320,0.8,2.3,76,0.00,CLR,SCT,0.00,WeatherDisplay:10.37,2013-06-04 09:22:00,
2013-06-04 05:27:00,50.0,42.0,29.59,NW,321,1.2,2.3,74,0.00,CLR,SCT,0.00,WeatherDisplay:10.37,2013-06-04 09:27:00,
2013-06-04 05:32:00,49.9,42.6,29.59,NW,321,0.3,2.3,76,0.00,CLR,SCT,0.00,WeatherDisplay:10.37,2013-06-04 09:32:00,
2013-06-04 05:37:00,49.8,42.5,29.60,NNW,333,0.9,2.3,76,0.00,CLR,SCT,0.00,WeatherDisplay:10.37,2013-06-04 09:37:00,
2013-06-04 05:42:00,49.6,41.7,29.60,NNE,19,0.4,1.1,74,0.00,CLR,SCT,0.00,WeatherDisplay:10.37,2013-06-04 09:42:00,
2013-06-04 05:47:00,49.5,41.9,29.60,NNE,19,0.1,1.0,75,0.00,CLR,SCT,0.00,WeatherDisplay:10.37,2013-06-04 09:47:00,
2013-06-04 05:52:00,49.4,42.1,29.60,NNE,19,0.0,0.0,76,0.00,CLR,SCT,0.00,WeatherDisplay:10.37,2013-06-04 09:52:00,
2013-06-04 05:57:00,49.3,42.1,29.60,NNE,19,0.0,1.1,76,0.00,CLR,SCT,0.00,WeatherDisplay:10.37,2013-06-04 09:57:00,
2013-06-04 06:02:00,49.2,42.0,29.61,NNE,19,0.3,1.1,76,0.00,CLR,SCT,0.00,WeatherDisplay:10.37,2013-06-04 10:02:00,
2013-06-04 06:07:00,49.2,42.0,29.61,NNW,337,0.7,1.1,76,0.00,CLR,SCT,0.00,WeatherDisplay:10.37,2013-06-04 10:07:00,
2013-06-04 06:12:00,49.3,42.1,29.61,NNW,328,1.4,2.3,76,0.00,CLR,SCT,0.00,WeatherDisplay:10.37,2013-06-04 10:12:00,
2013-06-04 06:17:00,49.5,42.2,29.61,North,355,1.3,3.5,76,0.00,CLR,SCT,0.00,WeatherDisplay:10.37,2013-06-04 10:17:00,
2013-06-04 06:22:00,49.6,42.0,29.61,North,5,1.8,3.5,75,0.00,CLR,SCT,0.00,WeatherDisplay:10.37,2013-06-04 10:22:00,
2013-06-04 06:27:00,49.7,42.1,29.61,NNW,333,0.8,4.0,75,0.00,CLR,SCT,0.00,WeatherDisplay:10.37,2013-06-04 10:27:00,
2013-06-04 06:32:00,49.7,41.7,29.62,North,351,0.3,2.3,74,0.00,CLR,SCT,0.00,WeatherDisplay:10.37,2013-06-04 10:32:00,
2013-06-04 06:37:00,49.9,42.3,29.62,North,360,1.2,3.5,75,0.00,CLR,SCT,0.00,WeatherDisplay:10.37,2013-06-04 10:37:00,
2013-06-04 06:42:00,49.9,41.9,29.61,North,355,0.4,2.3,74,0.00,CLR,SCT,0.00,WeatherDisplay:10.37,2013-06-04 10:42:00,
2013-06-04 06:47:00,50.0,42.4,29.61,North,349,1.6,2.3,75,0.00,CLR,SCT,0.00,WeatherDisplay:10.37,2013-06-04 10:47:00,
2013-06-04 06:52:00,50.2,42.6,29.62,NW,311,0.8,3.5,75,0.00,CLR,SCT,0.00,WeatherDisplay:10.37,2013-06-04 10:52:00,
2013-06-04 06:57:00,50.3,42.7,29.62,NNW,345,1.0,2.3,75,0.00,CLR,SCT,0.00,WeatherDisplay:10.37,2013-06-04 10:57:00,
2013-06-04 07:02:00,50.5,42.9,29.62,NNW,333,0.9,3.5,75,0.00,CLR,SCT,0.00,WeatherDisplay:10.37,2013-06-04 11:02:00,
2013-06-04 07:07:00,50.8,42.5,29.62,WNW,296,1.6,2.3,73,0.00,CLR,SCT,0.00,WeatherDisplay:10.37,2013-06-04 11:07:00,
2013-06-04 07:12:00,51.0,42.6,29.62,West,273,2.4,5.0,73,0.00,CLR,SCT,0.00,WeatherDisplay:10.37,2013-06-04 11:12:00,
2013-06-04 07:17:00,51.3,43.3,29.62,NW,313,0.7,2.3,74,0.00,CLR,SCT,0.00,WeatherDisplay:10.37,2013-06-04 11:17:00,
2013-06-04 07:22:00,51.6,43.9,29.62,NNW,331,1.0,2.3,75,0.00,CLR,SCT,0.00,WeatherDisplay:10.37,2013-06-04 11:22:00,
2013-06-04 07:27:00,52.1,42.6,29.62,North,5,1.1,3.5,70,0.00,CLR,SCT,0.00,WeatherDisplay:10.37,2013-06-04 11:27:00,
2013-06-04 07:32:00,52.6,43.8,29.63,NE,43,1.4,2.3,72,0.00,CLR,SCT,0.00,WeatherDisplay:10.37,2013-06-04 11:32:00,
2013-06-04 07:37:00,53.0,42.7,29.63,NNW,344,2.2,5.8,68,0.00,CLR,SCT,0.00,WeatherDisplay:10.37,2013-06-04 11:37:00,
2013-06-04 07:42:00,53.2,44.0,29.63,NNW,344,0.1,1.1,71,0.00,CLR,SCT,0.00,WeatherDisplay:10.37,2013-06-04 11:42:00,
2013-06-04 07:47:00,53.4,44.6,29.63,NNW,344,0.3,1.1,72,0.00,CLR,SCT,0.00,WeatherDisplay:10.37,2013-06-04 11:47:00,
2013-06-04 07:52:00,53.2,44.4,29.63,NNW,333,1.6,3.5,72,0.00,CLR,SCT,0.00,WeatherDisplay:10.37,2013-06-04 11:52:00,
2013-06-04 07:57:00,53.2,42.9,29.63,NW,325,3.5,5.0,68,0.00,CLR,SCT,0.00,WeatherDisplay:10.37,2013-06-04 11:57:00,
2013-06-04 08:02:00,53.3,43.0,29.63,NW,309,0.8,2.3,68,0.00,CLR,SCT,0.00,WeatherDisplay:10.37,2013-06-04 12:02:00,
2013-06-04 08:07:00,53.4,42.7,29.62,NNW,342,1.8,5.8,67,0.00,CLR,SCT,0.00,WeatherDisplay:10.37,2013-06-04 12:07:00,
2013-06-04 08:12:00,53.6,43.7,29.63,North,5,0.5,1.1,69,0.00,CLR,SCT,0.00,WeatherDisplay:10.37,2013-06-04 12:12:00,
2013-06-04 08:17:00,53.8,43.1,29.63,NW,313,1.7,4.0,67,0.00,CLR,SCT,0.00,WeatherDisplay:10.37,2013-06-04 12:17:00,
2013-06-04 08:22:00,54.2,43.9,29.63,NE,34,0.9,5.0,68,0.00,CLR,SCT,0.00,WeatherDisplay:10.37,2013-06-04 12:22:00,
2013-06-04 08:27:00,54.9,42.9,29.64,North,360,2.1,4.6,64,0.00,CLR,SCT,0.00,WeatherDisplay:10.37,2013-06-04 12:27:00,
2013-06-04 08:32:00,55.0,44.2,29.63,WSW,245,1.8,3.5,67,0.00,CLR,SCT,0.00,WeatherDisplay:10.37,2013-06-04 12:32:00,
2013-06-04 08:37:00,54.9,44.1,29.63,NNW,333,0.9,5.8,67,0.00,CLR,SCT,0.00,WeatherDisplay:10.37,2013-06-04 12:37:00,
2013-06-04 08:42:00,55.0,44.2,29.63,NNW,328,1.3,4.6,67,0.00,CLR,SCT,0.00,WeatherDisplay:10.37,2013-06-04 12:42:00,
2013-06-04 08:47:00,55.1,43.1,29.64,WNW,283,4.2,8.0,64,0.00,CLR,SCT,0.00,WeatherDisplay:10.37,2013-06-04 12:47:00,
2013-06-04 08:52:00,55.2,43.2,29.64,NW,320,2.3,3.5,64,0.00,CLR,SCT,0.00,WeatherDisplay:10.37,2013-06-04 12:52:00,
2013-06-04 08:57:00,55.8,44.2,29.64,NNW,348,2.6,4.6,65,0.00,CLR,SCT,0.00,WeatherDisplay:10.37,2013-06-04 12:57:00,
2013-06-04 09:02:00,56.1,43.7,29.64,North,360,2.2,6.9,63,0.00,CLR,SCT,0.00,WeatherDisplay:10.37,2013-06-04 13:02:00,
2013-06-04 09:07:00,56.6,43.3,29.64,NW,318,3.3,10.4,61,0.00,CLR,SCT,0.00,WeatherDisplay:10.37,2013-06-04 13:07:00,
2013-06-04 09:12:00,56.8,43.9,29.65,NNW,336,3.3,6.9,62,0.00,CLR,SCT,0.00,WeatherDisplay:10.37,2013-06-04 13:12:00,
2013-06-04 09:17:00,57.0,44.5,29.65,WNW,290,4.0,9.0,63,0.00,CLR,SCT,0.00,WeatherDisplay:10.37,2013-06-04 13:17:00,
2013-06-04 09:22:00,57.1,45.0,29.65,NW,313,1.2,2.3,64,0.00,CLR,SCT,0.00,WeatherDisplay:10.37,2013-06-04 13:22:00,
2013-06-04 09:27:00,57.5,44.1,29.65,NNW,343,1.8,3.5,61,0.00,CLR,SCT,0.00,WeatherDisplay:10.37,2013-06-04 13:27:00,
2013-06-04 09:32:00,57.7,43.9,29.66,North,9,4.9,6.9,60,0.00,CLR,SCT,0.00,WeatherDisplay:10.37,2013-06-04 13:32:00,
2013-06-04 09:37:00,57.6,43.8,29.66,NW,312,3.5,6.0,60,0.00,CLR,SCT,0.00,WeatherDisplay:10.37,2013-06-04 13:37:00,
2013-06-04 09:42:00,57.7,43.9,29.66,NNW,336,3.0,5.0,60,0.00,CLR,SCT,0.00,WeatherDisplay:10.37,2013-06-04 13:42:00,
2013-06-04 09:47:00,58.0,44.6,29.66,NNW,331,2.9,12.0,61,0.00,CLR,SCT,0.00,WeatherDisplay:10.37,2013-06-04 13:47:00,
2013-06-04 09:52:00,58.4,43.7,29.65,NNW,336,6.0,8.1,58,0.00,CLR,SCT,0.00,WeatherDisplay:10.37,2013-06-04 13:52:00,
2013-06-04 09:57:00,58.5,46.4,29.65,West,272,2.3,3.5,64,0.00,CLR,SCT,0.00,WeatherDisplay:10.37,2013-06-04 13:57:00,
2013-06-04 10:02:00,58.9,45.5,29.65,North,355,2.8,9.2,61,0.00,CLR,SCT,0.00,WeatherDisplay:10.37,2013-06-04 14:02:00,
2013-06-04 10:07:00,59.4,44.6,29.65,North,11,2.6,5.8,58,0.00,CLR,SCT,0.00,WeatherDisplay:10.37,2013-06-04 14:07:00,
2013-06-04 10:12:00,59.5,45.2,29.65,North,355,2.5,4.6,59,0.00,CLR,SCT,0.00,WeatherDisplay:10.37,2013-06-04 14:12:00,
2013-06-04 10:17:00,59.7,46.7,29.66,ENE,58,3.2,5.0,62,0.00,CLR,SCT,0.00,WeatherDisplay:10.37,2013-06-04 14:17:00,
2013-06-04 10:22:00,60.1,44.8,29.66,NE,40,2.8,5.8,57,0.00,CLR,SCT,0.00,WeatherDisplay:10.37,2013-06-04 14:22:00,
2013-06-04 10:27:00,60.0,46.1,29.66,North,5,1.3,3.5,60,0.00,CLR,SCT,0.00,WeatherDisplay:10.37,2013-06-04 14:27:00,
2013-06-04 10:32:00,60.6,45.7,29.66,NNE,25,1.5,5.0,58,0.00,CLR,SCT,0.00,WeatherDisplay:10.37,2013-06-04 14:32:00,
2013-06-04 10:37:00,61.2,46.3,29.66,NNE,12,0.7,3.5,58,0.00,CLR,SCT,0.00,WeatherDisplay:10.37,2013-06-04 14:37:00,
2013-06-04 10:42:00,61.1,47.1,29.66,WNW,298,2.4,4.6,60,0.00,CLR,SCT,0.00,WeatherDisplay:10.37,2013-06-04 14:42:00,
2013-06-04 10:47:00,61.5,48.4,29.66,North,5,1.1,5.0,62,0.00,CLR,SCT,0.00,WeatherDisplay:10.37,2013-06-04 14:47:00,
2013-06-04 10:52:00,61.7,46.3,29.66,NE,35,1.6,2.3,57,0.00,CLR,SCT,0.00,WeatherDisplay:10.37,2013-06-04 14:52:00,
2013-06-04 10:57:00,62.0,46.6,29.66,North,9,1.0,4.6,57,0.00,CLR,SCT,0.00,WeatherDisplay:10.37,2013-06-04 14:57:00,
2013-06-04 11:02:00,61.8,46.9,29.66,NNE,22,2.0,3.5,58,0.00,CLR,SCT,0.00,WeatherDisplay:10.37,2013-06-04 15:02:00,
2013-06-04 11:07:00,61.9,47.0,29.66,SSW,210,1.3,3.5,58,0.00,CLR,SCT,0.00,WeatherDisplay:10.37,2013-06-04 15:07:00,
2013-06-04 11:12:00,61.9,46.5,29.66,NW,304,0.5,3.5,57,0.00,CLR,SCT,0.00,WeatherDisplay:10.37,2013-06-04 15:12:00,
2013-06-04 11:17:00,63.1,49.4,29.66,West,275,1.3,3.5,61,0.00,CLR,SCT,0.00,WeatherDisplay:10.37,2013-06-04 15:17:00,
2013-06-04 11:22:00,61.7,46.3,29.66,NW,326,1.9,5.8,57,0.00,CLR,SCT,0.00,WeatherDisplay:10.37,2013-06-04 15:22:00,
2013-06-04 11:27:00,62.7,48.2,29.66,SSE,165,1.3,3.5,59,0.00,CLR,SCT,0.00,WeatherDisplay:10.37,2013-06-04 15:27:00,
2013-06-04 11:32:00,62.9,47.4,29.66,NW,320,1.8,3.5,57,0.00,CLR,SCT,0.00,WeatherDisplay:10.37,2013-06-04 15:32:00,
2013-06-04 11:37:00,62.9,47.4,29.66,SSE,156,1.8,3.5,57,0.00,CLR,SCT,0.00,WeatherDisplay:10.37,2013-06-04 15:37:00,
2013-06-04 11:42:00,62.7,47.2,29.67,SE,144,2.1,5.8,57,0.00,CLR,SCT,0.00,WeatherDisplay:10.37,2013-06-04 15:42:00,
2013-06-04 11:47:00,62.9,48.3,29.67,WNW,300,0.7,2.3,59,0.00,CLR,SCT,0.00,WeatherDisplay:10.37,2013-06-04 15:47:00,
2013-06-04 11:52:00,63.2,47.7,29.66,ESE,123,5.8,11.5,57,0.00,CLR,SCT,0.00,WeatherDisplay:10.37,2013-06-04 15:52:00,
2013-06-04 11:57:00,63.2,48.6,29.67,West,281,1.1,3.5,59,0.00,CLR,SCT,0.00,WeatherDisplay:10.37,2013-06-04 15:57:00,
2013-06-04 12:02:00,63.6,47.6,29.67,NNW,340,1.9,5.0,56,0.00,CLR,SCT,0.00,WeatherDisplay:10.37,2013-06-04 16:02:00,
2013-06-04 12:07:00,63.6,46.6,29.66,WNW,296,1.2,4.6,54,0.00,CLR,SCT,0.00,WeatherDisplay:10.37,2013-06-04 16:07:00,
2013-06-04 12:12:00,63.3,46.9,29.66,WNW,298,2.2,3.5,55,0.00,CLR,SCT,0.00,WeatherDisplay:10.37,2013-06-04 16:12:00,
2013-06-04 12:17:00,63.6,48.5,29.66,SSE,166,0.5,2.3,58,0.00,CLR,SCT,0.00,WeatherDisplay:10.37,2013-06-04 16:17:00,
2013-06-04 12:22:00,63.9,49.3,29.66,East,79,0.5,3.5,59,0.00,CLR,SCT,0.00,WeatherDisplay:10.37,2013-06-04 16:22:00,
2013-06-04 12:27:00,64.6,49.9,29.66,NW,321,3.3,4.6,59,0.00,CLR,SCT,0.00,WeatherDisplay:10.37,2013-06-04 16:27:00,
2013-06-04 12:32:00,65.1,48.0,29.66,NE,38,0.9,3.5,54,0.00,CLR,SCT,0.00,WeatherDisplay:10.37,2013-06-04 16:32:00,
2013-06-04 12:37:00,65.0,46.9,29.65,NNE,28,1.9,9.0,52,0.00,CLR,SCT,0.00,WeatherDisplay:10.37,2013-06-04 16:37:00,
2013-06-04 12:42:00,64.8,47.3,29.66,ENE,70,1.3,6.9,53,0.00,CLR,SCT,0.00,WeatherDisplay:10.37,2013-06-04 16:42:00,
2013-06-04 12:47:00,65.0,48.9,29.65,WNW,286,0.6,4.6,56,0.00,CLR,SCT,0.00,WeatherDisplay:10.37,2013-06-04 16:47:00,
2013-06-04 12:52:00,66.0,49.8,29.65,WNW,286,2.0,5.8,56,0.00,CLR,SCT,0.00,WeatherDisplay:10.37,2013-06-04 16:52:00,
2013-06-04 12:57:00,67.0,49.3,29.65,North,5,0.9,5.8,53,0.00,CLR,SCT,0.00,WeatherDisplay:10.37,2013-06-04 16:57:00,
2013-06-04 13:02:00,66.1,46.9,29.65,WSW,248,2.2,8.1,50,0.00,CLR,SCT,0.00,WeatherDisplay:10.37,2013-06-04 17:02:00,
2013-06-04 13:07:00,66.2,50.0,29.65,NW,305,0.8,3.5,56,0.00,CLR,SCT,0.00,WeatherDisplay:10.37,2013-06-04 17:07:00,
2013-06-04 13:12:00,67.1,47.8,29.65,NW,318,2.7,4.6,50,0.00,CLR,SCT,0.00,WeatherDisplay:10.37,2013-06-04 17:12:00,
2013-06-04 13:17:00,67.5,49.8,29.65,NW,305,0.2,3.5,53,0.00,CLR,SCT,0.00,WeatherDisplay:10.37,2013-06-04 17:17:00,
2013-06-04 13:22:00,67.0,49.3,29.65,East,100,0.6,3.5,53,0.00,CLR,SCT,0.00,WeatherDisplay:10.37,2013-06-04 17:22:00,
2013-06-04 13:27:00,67.8,49.0,29.65,NNE,19,2.9,5.8,51,0.00,CLR,SCT,0.00,WeatherDisplay:10.37,2013-06-04 17:27:00,
2013-06-04 13:32:00,68.4,49.0,29.65,West,271,2.2,4.0,50,0.00,CLR,SCT,0.00,WeatherDisplay:10.37,2013-06-04 17:32:00,
2013-06-04 13:37:00,68.8,49.9,29.64,NNE,28,1.5,2.3,51,0.00,CLR,SCT,0.00,WeatherDisplay:10.37,2013-06-04 17:37:00,
2013-06-04 13:42:00,69.0,47.4,29.65,North,360,1.9,5.8,46,0.00,CLR,SCT,0.00,WeatherDisplay:10.37,2013-06-04 17:42:00,
2013-06-04 13:47:00,69.8,46.3,29.64,North,360,0.2,2.3,43,0.00,CLR,SCT,0.00,WeatherDisplay:10.37,2013-06-04 17:47:00,
2013-06-04 13:52:00,70.2,49.0,29.64,NE,54,1.9,6.9,47,0.00,CLR,SCT,0.00,WeatherDisplay:10.37,2013-06-04 17:52:00,
2013-06-04 13:57:00,69.3,49.3,29.64,ENE,68,2.9,4.6,49,0.00,CLR,SCT,0.00,WeatherDisplay:10.37,2013-06-04 17:57:00,
2013-06-04 14:02:00,68.4,49.0,29.64,NE,37,1.9,4.6,50,0.00,CLR,SCT,0.00,WeatherDisplay:10.37,2013-06-04 18:02:00,
2013-06-04 14:07:00,68.7,47.1,29.64,NNE,28,0.3,3.5,46,0.00,CLR,SCT,0.00,WeatherDisplay:10.37,2013-06-04 18:07:00,
2013-06-04 14:12:00,68.0,49.7,29.64,NW,315,1.8,3.5,52,0.00,CLR,SCT,0.00,WeatherDisplay:10.37,2013-06-04 18:12:00,
2013-06-04 14:17:00,70.1,50.0,29.64,ESE,119,1.1,3.0,49,0.00,CLR,SCT,0.00,WeatherDisplay:10.37,2013-06-04 18:17:00,
2013-06-04 14:22:00,68.8,47.2,29.64,SSW,198,0.7,3.5,46,0.00,CLR,SCT,0.00,WeatherDisplay:10.37,2013-06-04 18:22:00,
2013-06-04 14:27:00,68.7,50.4,29.64,West,263,0.7,3.5,52,0.00,CLR,SCT,0.00,WeatherDisplay:10.37,2013-06-04 18:27:00,
2013-06-04 14:32:00,70.3,50.2,29.64,SSE,153,1.0,2.3,49,0.00,CLR,SCT,0.00,WeatherDisplay:10.37,2013-06-04 18:32:00,
2013-06-04 14:37:00,68.9,48.9,29.64,NNW,347,1.8,4.0,49,0.00,CLR,SCT,0.00,WeatherDisplay:10.37,2013-06-04 18:37:00,
2013-06-04 14:42:00,70.4,47.4,29.64,East,96,0.8,3.5,44,0.00,CLR,SCT,0.00,WeatherDisplay:10.37,2013-06-04 18:42:00,
2013-06-04 14:47:00,70.8,49.0,29.64,NNW,327,1.6,6.0,46,0.00,CLR,SCT,0.00,WeatherDisplay:10.37,2013-06-04 18:47:00,
2013-06-04 14:52:00,70.5,49.3,29.64,SW,218,0.7,3.5,47,0.00,CLR,SCT,0.00,WeatherDisplay:10.37,2013-06-04 18:52:00,
2013-06-04 14:57:00,70.4,48.0,29.64,NNE,31,1.3,4.0,45,0.00,CLR,SCT,0.00,WeatherDisplay:10.37,2013-06-04 18:57:00,
2013-06-04 15:02:00,70.3,48.5,29.64,NNE,16,2.8,4.6,46,0.00,CLR,SCT,0.00,WeatherDisplay:10.37,2013-06-04 19:02:00,
2013-06-04 15:07:00,70.7,47.1,29.64,NNE,19,2.3,4.6,43,0.00,CLR,SCT,0.00,WeatherDisplay:10.37,2013-06-04 19:07:00,
2013-06-04 15:12:00,70.0,48.3,29.64,NW,318,0.5,2.3,46,0.00,CLR,SCT,0.00,WeatherDisplay:10.37,2013-06-04 19:12:00,
2013-06-04 15:17:00,71.8,47.5,29.65,NNW,346,2.6,5.0,42,0.00,CLR,SCT,0.00,WeatherDisplay:10.37,2013-06-04 19:17:00,
2013-06-04 15:22:00,72.2,45.2,29.64,NNE,13,2.5,6.9,38,0.00,CLR,SCT,0.00,WeatherDisplay:10.37,2013-06-04 19:22:00,
2013-06-04 15:27:00,71.7,46.7,29.64,NNW,332,1.9,5.8,41,0.00,CLR,SCT,0.00,WeatherDisplay:10.37,2013-06-04 19:27:00,
2013-06-04 15:32:00,71.2,44.3,29.64,NNW,337,2.5,5.8,38,0.00,CLR,SCT,0.00,WeatherDisplay:10.37,2013-06-04 19:32:00,
2013-06-04 15:37:00,70.9,44.7,29.64,North,355,1.9,4.0,39,0.00,CLR,SCT,0.00,WeatherDisplay:10.37,2013-06-04 19:37:00,
2013-06-04 15:42:00,70.7,45.8,29.64,NNW,342,2.3,6.9,41,0.00,CLR,SCT,0.00,WeatherDisplay:10.37,2013-06-04 19:42:00,
2013-06-04 15:47:00,70.2,46.0,29.64,NNW,344,1.8,3.5,42,0.00,CLR,SCT,0.00,WeatherDisplay:10.37,2013-06-04 19:47:00,
2013-06-04 15:52:00,69.6,47.9,29.64,North,355,0.1,1.1,46,0.00,CLR,SCT,0.00,WeatherDisplay:10.37,2013-06-04 19:52:00,
2013-06-04 15:57:00,69.7,47.4,29.64,NNW,348,1.3,4.6,45,0.00,CLR,SCT,0.00,WeatherDisplay:10.37,2013-06-04 19:57:00,
2013-06-04 16:02:00,69.7,48.0,29.64,NW,315,1.8,4.6,46,0.00,CLR,SCT,0.00,WeatherDisplay:10.37,2013-06-04 20:02:00,
2013-06-04 16:07:00,69.3,48.2,29.64,NW,317,0.1,1.1,47,0.00,CLR,SCT,0.00,WeatherDisplay:10.37,2013-06-04 20:07:00,
2013-06-04 16:12:00,69.0,45.6,29.64,NE,55,4.0,4.0,43,0.00,CLR,SCT,0.00,WeatherDisplay:10.37,2013-06-04 20:12:00,
2013-06-04 16:17:00,69.2,45.7,29.64,North,360,1.3,2.3,43,0.00,CLR,SCT,0.00,WeatherDisplay:10.37,2013-06-04 20:17:00,
2013-06-04 16:22:00,69.2,45.1,29.64,NNW,340,2.3,4.0,42,0.00,CLR,SCT,0.00,WeatherDisplay:10.37,2013-06-04 20:22:00,
2013-06-04 16:27:00,69.1,46.3,29.64,NW,313,2.0,7.0,44,0.00,CLR,SCT,0.00,WeatherDisplay:10.37,2013-06-04 20:27:00,
2013-06-04 16:32:00,68.9,47.3,29.64,NW,316,2.2,5.8,46,0.00,CLR,SCT,0.00,WeatherDisplay:10.37,2013-06-04 20:32:00,
2013-06-04 16:37:00,68.8,46.0,29.64,NNW,329,1.2,5.8,44,0.00,CLR,SCT,0.00,WeatherDisplay:10.37,2013-06-04 20:37:00,
2013-06-04 16:42:00,68.8,46.0,29.64,East,88,0.9,4.6,44,0.00,CLR,SCT,0.00,WeatherDisplay:10.37,2013-06-04 20:42:00,
2013-06-04 16:47:00,68.6,44.6,29.64,NNE,28,4.1,5.8,42,0.00,CLR,SCT,0.00,WeatherDisplay:10.37,2013-06-04 20:47:00,
2013-06-04 16:52:00,68.5,45.7,29.64,NNW,344,0.6,3.0,44,0.00,CLR,SCT,0.00,WeatherDisplay:10.37,2013-06-04 20:52:00,
2013-06-04 16:57:00,68.5,46.9,29.64,NNW,334,1.3,3.5,46,0.00,CLR,SCT,0.00,WeatherDisplay:10.37,2013-06-04 20:57:00,
2013-06-04 17:02:00,68.3,46.1,29.64,East,85,2.7,5.8,45,0.00,CLR,SCT,0.00,WeatherDisplay:10.37,2013-06-04 21:02:00,
2013-06-04 17:07:00,68.1,47.1,29.64,WNW,289,1.0,2.3,47,0.00,CLR,SCT,0.00,WeatherDisplay:10.37,2013-06-04 21:07:00,
2013-06-04 17:12:00,67.9,47.5,29.65,WNW,289,0.2,1.1,48,0.00,CLR,SCT,0.00,WeatherDisplay:10.37,2013-06-04 21:12:00,
2013-06-04 17:17:00,67.8,46.3,29.65,West,279,2.1,3.5,46,0.00,CLR,SCT,0.00,WeatherDisplay:10.37,2013-06-04 21:17:00,
2013-06-04 17:22:00,67.8,45.7,29.65,WNW,300,1.2,3.5,45,0.00,CLR,SCT,0.00,WeatherDisplay:10.37,2013-06-04 21:22:00,
2013-06-04 17:27:00,67.7,46.2,29.65,NNW,341,0.9,2.3,46,0.00,CLR,SCT,0.00,WeatherDisplay:10.37,2013-06-04 21:27:00,
2013-06-04 17:32:00,67.6,46.1,29.65,SW,216,0.5,2.0,46,0.00,CLR,SCT,0.00,WeatherDisplay:10.37,2013-06-04 21:32:00,
2013-06-04 17:37:00,67.5,44.8,29.65,NNE,29,1.7,4.6,44,0.00,CLR,SCT,0.00,WeatherDisplay:10.37,2013-06-04 21:37:00,
2013-06-04 17:42:00,67.6,44.9,29.65,NNW,335,3.0,4.6,44,0.00,CLR,SCT,0.00,WeatherDisplay:10.37,2013-06-04 21:42:00,
2013-06-04 17:47:00,67.7,45.0,29.65,North,349,1.0,2.3,44,0.00,CLR,SCT,0.00,WeatherDisplay:10.37,2013-06-04 21:47:00,
2013-06-04 17:52:00,67.7,44.4,29.65,NW,319,0.0,1.1,43,0.00,CLR,SCT,0.00,WeatherDisplay:10.37,2013-06-04 21:52:00,
2013-06-04 17:57:00,67.6,43.7,29.66,North,349,0.2,1.1,42,0.00,CLR,SCT,0.00,WeatherDisplay:10.37,2013-06-04 21:57:00,
2013-06-04 18:02:00,67.6,44.9,29.66,East,88,0.0,2.3,44,0.00,CLR,SCT,0.00,WeatherDisplay:10.37,2013-06-04 22:02:00,
2013-06-04 18:07:00,67.4,44.7,29.66,North,350,0.0,2.3,44,0.00,CLR,SCT,0.00,WeatherDisplay:10.37,2013-06-04 22:07:00,
2013-06-04 18:12:00,67.3,44.6,29.67,WNW,294,0.0,2.3,44,0.00,CLR,SCT,0.00,WeatherDisplay:10.37,2013-06-04 22:12:00,
2013-06-04 18:17:00,67.2,45.1,29.66,NE,40,0.5,0.0,45,0.00,CLR,SCT,0.00,WeatherDisplay:10.37,2013-06-04 22:17:00,
2013-06-04 18:22:00,67.0,45.5,29.67,NNW,328,0.0,1.1,46,0.00,CLR,SCT,0.00,WeatherDisplay:10.37,2013-06-04 22:22:00,
2013-06-04 18:27:00,66.9,44.3,29.66,NNW,340,0.0,1.1,44,0.00,CLR,SCT,0.00,WeatherDisplay:10.37,2013-06-04 22:27:00,
2013-06-04 18:32:00,66.8,45.3,29.66,SE,132,0.0,0.0,46,0.00,CLR,SCT,0.00,WeatherDisplay:10.37,2013-06-04 22:32:00,
2013-06-04 18:37:00,66.7,45.3,29.67,NW,316,1.3,0.0,46,0.00,CLR,SCT,0.00,WeatherDisplay:10.37,2013-06-04 22:37:00,
2013-06-04 18:42:00,66.7,45.3,29.67,North,355,1.2,3.0,46,0.00,CLR,SCT,0.00,WeatherDisplay:10.37,2013-06-04 22:42:00,
2013-06-04 18:47:00,66.6,44.0,29.67,SSW,209,0.8,3.5,44,0.00,CLR,SCT,0.00,WeatherDisplay:10.37,2013-06-04 22:47:00,
2013-06-04 18:52:00,66.5,45.1,29.67,West,261,0.0,0.0,46,0.00,CLR,SCT,0.00,WeatherDisplay:10.37,2013-06-04 22:52:00,
2013-06-04 18:57:00,66.4,45.5,29.67,WNW,301,0.5,1.1,47,0.00,CLR,SCT,0.00,WeatherDisplay:10.37,2013-06-04 22:57:00,
2013-06-04 19:02:00,66.4,45.0,29.68,NNE,13,0.3,1.1,46,0.00,CLR,SCT,0.00,WeatherDisplay:10.37,2013-06-04 23:02:00,
2013-06-04 19:07:00,66.3,45.5,29.68,NNE,13,0.0,0.0,47,0.00,CLR,SCT,0.00,WeatherDisplay:10.37,2013-06-04 23:07:00,
2013-06-04 19:12:00,66.1,45.8,29.67,WNW,295,1.3,4.6,48,0.00,CLR,SCT,0.00,WeatherDisplay:10.37,2013-06-04 23:12:00,
2013-06-04 19:17:00,65.9,46.2,29.67,WNW,295,1.0,2.3,49,0.00,CLR,SCT,0.00,WeatherDisplay:10.37,2013-06-04 23:17:00,
2013-06-04 19:22:00,65.6,46.5,29.68,NW,325,0.3,2.3,50,0.00,CLR,SCT,0.00,WeatherDisplay:10.37,2013-06-04 23:22:00,
2013-06-04 19:27:00,65.4,44.6,29.68,North,350,2.3,2.3,47,0.00,CLR,SCT,0.00,WeatherDisplay:10.37,2013-06-04 23:27:00,
2013-06-04 19:32:00,65.3,45.6,29.68,SSW,200,0.0,1.1,49,0.00,CLR,SCT,0.00,WeatherDisplay:10.37,2013-06-04 23:32:00,
2013-06-04 19:37:00,65.1,47.5,29.68,NW,323,0.2,1.1,53,0.00,CLR,SCT,0.00,WeatherDisplay:10.37,2013-06-04 23:37:00,
2013-06-04 19:42:00,64.8,46.2,29.68,East,88,0.1,1.1,51,0.00,CLR,SCT,0.00,WeatherDisplay:10.37,2013-06-04 23:42:00,
2013-06-04 19:47:00,64.6,45.5,29.69,NE,56,0.3,0.0,50,0.00,CLR,SCT,0.00,WeatherDisplay:10.37,2013-06-04 23:47:00,
2013-06-04 19:52:00,64.4,45.9,29.69,NE,56,0.1,1.1,51,0.00,CLR,SCT,0.00,WeatherDisplay:10.37,2013-06-04 23:52:00,
2013-06-04 19:57:00,64.2,45.2,29.69,NE,56,0.0,0.0,50,0.00,CLR,SCT,0.00,WeatherDisplay:10.37,2013-06-04 23:57:00,
2013-06-04 20:02:00,64.0,45.0,29.69,NNE,25,0.4,0.0,50,0.00,CLR,SCT,0.00,WeatherDisplay:10.37,2013-06-05 00:02:00,
2013-06-04 20:07:00,63.7,45.7,29.69,NNE,25,0.0,0.0,52,0.00,CLR,SCT,0.00,WeatherDisplay:10.37,2013-06-05 00:07:00,
2013-06-04 20:12:00,63.4,45.5,29.69,NNE,25,0.0,0.0,52,0.00,CLR,SCT,0.00,WeatherDisplay:10.37,2013-06-05 00:12:00,
2013-06-04 20:17:00,63.1,45.2,29.69,NNE,25,0.0,0.0,52,0.00,CLR,SCT,0.00,WeatherDisplay:10.37,2013-06-05 00:17:00,
2013-06-04 20:22:00,62.8,46.4,29.70,NNE,25,0.0,0.0,55,0.00,CLR,SCT,0.00,WeatherDisplay:10.37,2013-06-05 00:22:00,
2013-06-04 20:27:00,62.0,47.0,29.70,East,101,0.0,0.0,58,0.00,CLR,SCT,0.00,WeatherDisplay:10.37,2013-06-05 00:27:00,
2013-06-04 20:32:00,61.1,47.1,29.70,East,101,0.0,0.0,60,0.00,CLR,SCT,0.00,WeatherDisplay:10.37,2013-06-05 00:32:00,
2013-06-04 20:37:00,60.4,46.4,29.70,East,101,0.0,0.0,60,0.00,CLR,SCT,0.00,WeatherDisplay:10.37,2013-06-05 00:37:00,
2013-06-04 20:42:00,60.0,46.1,29.70,East,101,0.0,0.0,60,0.00,CLR,SCT,0.00,WeatherDisplay:10.37,2013-06-05 00:42:00,
2013-06-04 20:47:00,59.8,45.9,29.70,East,101,0.0,0.0,60,0.00,CLR,SCT,0.00,WeatherDisplay:10.37,2013-06-05 00:47:00,
2013-06-04 20:52:00,59.6,46.1,29.70,East,101,0.0,0.0,61,0.00,CLR,SCT,0.00,WeatherDisplay:10.37,2013-06-05 00:52:00,
2013-06-04 20:57:00,59.4,46.4,29.71,East,101,0.0,0.0,62,0.00,CLR,SCT,0.00,WeatherDisplay:10.37,2013-06-05 00:57:00,
2013-06-04 21:02:00,58.9,47.2,29.71,East,101,0.1,1.0,65,0.00,CLR,SCT,0.00,WeatherDisplay:10.37,2013-06-05 01:02:00,
2013-06-04 21:07:00,58.4,46.7,29.72,East,101,0.0,0.0,65,0.00,CLR,SCT,0.00,WeatherDisplay:10.37,2013-06-05 01:07:00,
2013-06-04 21:12:00,58.0,45.9,29.72,East,101,0.0,0.0,64,0.00,CLR,SCT,0.00,WeatherDisplay:10.37,2013-06-05 01:12:00,
2013-06-04 21:17:00,57.7,44.3,29.72,East,101,0.0,0.0,61,0.00,CLR,SCT,0.00,WeatherDisplay:10.37,2013-06-05 01:17:00,
2013-06-04 21:22:00,57.6,44.7,29.72,East,101,0.0,0.0,62,0.00,CLR,SCT,0.00,WeatherDisplay:10.37,2013-06-05 01:22:00,
2013-06-04 21:27:00,57.5,43.7,29.73,East,101,0.0,0.0,60,0.00,CLR,SCT,0.00,WeatherDisplay:10.37,2013-06-05 01:27:00,
2013-06-04 21:32:00,57.5,43.3,29.73,East,101,0.0,0.0,59,0.00,CLR,SCT,0.00,WeatherDisplay:10.37,2013-06-05 01:32:00,
2013-06-04 21:37:00,57.4,43.2,29.73,East,101,0.0,0.0,59,0.00,CLR,SCT,0.00,WeatherDisplay:10.37,2013-06-05 01:37:00,
2013-06-04 21:42:00,57.3,44.0,29.73,East,101,0.0,0.0,61,0.00,CLR,SCT,0.00,WeatherDisplay:10.37,2013-06-05 01:42:00,
2013-06-04 21:47:00,57.5,44.6,29.74,East,101,0.0,0.0,62,0.00,CLR,SCT,0.00,WeatherDisplay:10.37,2013-06-05 01:47:00,
2013-06-04 21:52:00,57.4,44.5,29.74,East,101,0.0,0.0,62,0.00,CLR,SCT,0.00,WeatherDisplay:10.37,2013-06-05 01:52:00,
2013-06-04 21:57:00,57.2,43.9,29.75,East,101,0.0,0.0,61,0.00,CLR,SCT,0.00,WeatherDisplay:10.37,2013-06-05 01:57:00,
2013-06-04 22:02:00,57.2,43.4,29.75,East,101,0.0,0.0,60,0.00,CLR,SCT,0.00,WeatherDisplay:10.37,2013-06-05 02:02:00,
2013-06-04 22:07:00,57.2,42.5,29.75,East,101,0.0,0.0,58,0.00,CLR,SCT,0.00,WeatherDisplay:10.37,2013-06-05 02:07:00,
2013-06-04 22:12:00,57.3,43.1,29.75,East,101,0.0,0.0,59,0.00,CLR,SCT,0.00,WeatherDisplay:10.37,2013-06-05 02:12:00,
2013-06-04 22:17:00,57.5,42.8,29.75,East,94,0.0,0.0,58,0.00,CLR,SCT,0.00,WeatherDisplay:10.37,2013-06-05 02:17:00,
2013-06-04 22:22:00,57.7,43.5,29.75,East,94,0.0,0.0,59,0.00,CLR,SCT,0.00,WeatherDisplay:10.37,2013-06-05 02:22:00,
2013-06-04 22:27:00,57.9,44.5,29.76,East,92,0.0,0.0,61,0.00,CLR,SCT,0.00,WeatherDisplay:10.37,2013-06-05 02:27:00,
2013-06-04 22:32:00,57.9,45.0,29.76,ENE,78,0.0,0.0,62,0.00,CLR,SCT,0.00,WeatherDisplay:10.37,2013-06-05 02:32:00,
2013-06-04 22:37:00,57.6,44.7,29.75,North,11,0.4,1.0,62,0.00,CLR,SCT,0.00,WeatherDisplay:10.37,2013-06-05 02:37:00,
2013-06-04 22:42:00,57.5,44.1,29.76,NNE,24,0.5,3.5,61,0.00,CLR,SCT,0.00,WeatherDisplay:10.37,2013-06-05 02:42:00,
2013-06-04 22:47:00,57.4,45.7,29.76,NNE,24,0.0,0.0,65,0.00,CLR,SCT,0.00,WeatherDisplay:10.37,2013-06-05 02:47:00,
2013-06-04 22:52:00,57.0,44.9,29.76,NNE,24,0.0,0.0,64,0.00,CLR,SCT,0.00,WeatherDisplay:10.37,2013-06-05 02:52:00,
2013-06-04 22:57:00,56.4,45.2,29.77,NNE,24,0.0,0.0,66,0.00,CLR,SCT,0.00,WeatherDisplay:10.37,2013-06-05 02:57:00,
2013-06-04 23:02:00,55.9,45.5,29.77,NNE,24,0.0,0.0,68,0.00,CLR,SCT,0.00,WeatherDisplay:10.37,2013-06-05 03:02:00,
2013-06-04 23:07:00,55.6,44.4,29.77,NNE,27,0.0,0.0,66,0.00,CLR,SCT,0.00,WeatherDisplay:10.37,2013-06-05 03:07:00,
2013-06-04 23:12:00,55.3,44.1,29.77,NNE,27,0.0,0.0,66,0.00,CLR,SCT,0.00,WeatherDisplay:10.37,2013-06-05 03:12:00,
2013-06-04 23:17:00,55.0,43.8,29.77,NNE,27,0.0,0.0,66,0.00,CLR,SCT,0.00,WeatherDisplay:10.37,2013-06-05 03:17:00,
2013-06-04 23:22:00,54.7,43.6,29.77,NNE,27,0.0,0.0,66,0.00,CLR,SCT,0.00,WeatherDisplay:10.37,2013-06-05 03:22:00,
2013-06-04 23:27:00,54.6,43.9,29.77,NNE,27,0.0,1.1,67,0.00,CLR,SCT,0.00,WeatherDisplay:10.37,2013-06-05 03:27:00,
2013-06-04 23:32:00,54.5,43.4,29.77,NNE,27,0.0,0.0,66,0.00,CLR,SCT,0.00,WeatherDisplay:10.37,2013-06-05 03:32:00,
2013-06-04 23:37:00,54.4,43.7,29.77,NNE,27,0.0,0.0,67,0.00,CLR,SCT,0.00,WeatherDisplay:10.37,2013-06-05 03:37:00,
2013-06-04 23:42:00,54.1,44.2,29.77,NNE,27,0.0,0.0,69,0.00,CLR,SCT,0.00,WeatherDisplay:10.37,2013-06-05 03:42:00,
2013-06-04 23:47:00,53.6,43.7,29.77,NNE,28,0.3,1.1,69,0.00,CLR,SCT,0.00,WeatherDisplay:10.37,2013-06-05 03:47:00,
2013-06-04 23:52:00,53.3,42.6,29.77,NNE,28,0.1,0.0,67,0.00,CLR,SCT,0.00,WeatherDisplay:10.37,2013-06-05 03:52:00,
2013-06-04 23:57:00,53.2,42.5,29.77,NNE,28,0.0,0.0,67,0.00,CLR,SCT,0.00,WeatherDisplay:10.37,2013-06-05 03:57:00,